Time;durP1;ratioP1;P1;durP2;ratioP2;P2;SDS_P1;SDS_P2;PMS_P1;PMS_P2;Temp;Humidity;BMP_temperature;BMP_pressure;BME280_temperature;BME280_humidity;BME280_pressure;Samples;Min_cycle;Max_cycle;Signal;HPM_P1;HPM_P2
2023/06/25 00:00:15;;;;;;;14.63;10.10;;;;;;;;;;4953371;29;20031;-77
2023/06/25 00:02:47;;;;;;;17.65;10.32;;;;;;;;;;4954429;28;20031;-76
2023/06/25 00:05:13;;;;;;;14.70;10.35;;;;;;;;;;4954746;28;20085;-77
2023/06/25 00:07:39;;;;;;;17.25;11.02;;;;;;;;;;4954533;28;20471;-76
2023/06/25 00:10:04;;;;;;;18.35;11.00;;;;;;;;;;4953121;29;20502;-76
2023/06/25 00:12:30;;;;;;;21.42;11.70;;;;;;;;;;4954171;28;20068;-77
2023/06/25 00:14:56;;;;;;;17.88;10.95;;;;;;;;;;4940723;28;20024;-76
2023/06/25 00:17:27;;;;;;;16.13;11.35;;;;;;;;;;4935291;29;20142;-77
2023/06/25 00:19:56;;;;;;;16.45;11.48;;;;;;;;;;4934170;29;20039;-77
2023/06/25 00:22:24;;;;;;;18.80;11.27;;;;;;;;;;4935418;29;20031;-77
2023/06/25 00:24:50;;;;;;;18.95;11.93;;;;;;;;;;4935848;29;20102;-78
2023/06/25 00:27:16;;;;;;;17.38;11.70;;;;;;;;;;4935503;29;20514;-76
2023/06/25 00:29:41;;;;;;;16.67;10.43;;;;;;;;;;4936002;29;20031;-77
2023/06/25 00:32:07;;;;;;;18.90;11.60;;;;;;;;;;4935860;29;20044;-77
2023/06/25 00:34:40;;;;;;;14.32;10.13;;;;;;;;;;4935565;29;20027;-78
2023/06/25 00:37:16;;;;;;;15.60;10.98;;;;;;;;;;4935116;29;20118;-76
2023/06/25 00:39:41;;;;;;;15.27;10.38;;;;;;;;;;4935958;29;20040;-77
2023/06/25 00:42:09;;;;;;;15.60;10.07;;;;;;;;;;4934650;29;20042;-79
2023/06/25 00:44:40;;;;;;;15.80;9.65;;;;;;;;;;4932707;29;20024;-76
2023/06/25 00:47:12;;;;;;;11.93;8.07;;;;;;;;;;4942496;29;20517;-77
2023/06/25 00:49:46;;;;;;;13.25;8.50;;;;;;;;;;4937205;29;20027;-76
2023/06/25 00:52:13;;;;;;;11.38;7.20;;;;;;;;;;4952488;29;20031;-77
2023/06/25 00:54:43;;;;;;;13.13;7.90;;;;;;;;;;4953969;28;20526;-75
2023/06/25 00:57:09;;;;;;;13.68;7.47;;;;;;;;;;4953742;28;20110;-76
2023/06/25 00:59:36;;;;;;;13.00;7.55;;;;;;;;;;4953210;29;20042;-77
2023/06/25 01:02:06;;;;;;;11.43;7.22;;;;;;;;;;4953118;28;20032;-77
2023/06/25 01:04:36;;;;;;;12.32;7.30;;;;;;;;;;4954249;28;20479;-76
2023/06/25 01:07:04;;;;;;;10.45;6.82;;;;;;;;;;4954023;29;20085;-78
2023/06/25 01:09:30;;;;;;;14.60;10.93;;;;;;;;;;4953698;29;20472;-76
2023/06/25 01:12:03;;;;;;;9.52;6.97;;;;;;;;;;4937544;29;20064;-77
2023/06/25 01:14:28;;;;;;;12.48;7.43;;;;;;;;;;4944509;28;20028;-77
2023/06/25 01:16:55;;;;;;;10.15;7.13;;;;;;;;;;4950504;29;20036;-77
2023/06/25 01:19:25;;;;;;;11.85;7.40;;;;;;;;;;4934237;29;20503;-78
2023/06/25 01:21:51;;;;;;;13.55;6.10;;;;;;;;;;4934996;29;20032;-77
2023/06/25 01:24:17;;;;;;;9.85;7.18;;;;;;;;;;4935613;29;20032;-77
2023/06/25 01:26:44;;;;;;;9.32;6.70;;;;;;;;;;4934963;29;20032;-78
2023/06/25 01:29:09;;;;;;;14.70;7.22;;;;;;;;;;4934131;29;20498;-77
2023/06/25 01:31:35;;;;;;;9.93;6.95;;;;;;;;;;4934983;29;20114;-77
2023/06/25 01:34:00;;;;;;;11.60;7.43;;;;;;;;;;4935385;29;20505;-77
2023/06/25 01:36:26;;;;;;;10.63;6.88;;;;;;;;;;4934884;29;20032;-77
2023/06/25 01:38:52;;;;;;;9.98;6.80;;;;;;;;;;4934457;29;20051;-77
2023/06/25 01:41:17;;;;;;;12.25;6.90;;;;;;;;;;4933107;29;20031;-78
2023/06/25 01:43:43;;;;;;;11.07;6.90;;;;;;;;;;4933743;29;20043;-78
2023/06/25 01:46:09;;;;;;;12.20;7.63;;;;;;;;;;4938290;29;20119;-76
2023/06/25 01:48:35;;;;;;;13.15;7.70;;;;;;;;;;4956316;29;20513;-76
2023/06/25 01:51:00;;;;;;;10.85;6.95;;;;;;;;;;4957294;28;20031;-77
2023/06/25 01:53:26;;;;;;;11.85;6.95;;;;;;;;;;4940528;29;20489;-79
2023/06/25 01:55:52;;;;;;;9.90;6.75;;;;;;;;;;4957857;28;20046;-77
2023/06/25 01:58:18;;;;;;;9.88;6.93;;;;;;;;;;4958156;28;20027;-77
2023/06/25 02:00:43;;;;;;;10.48;6.78;;;;;;;;;;4958570;28;20130;-76
2023/06/25 02:03:08;;;;;;;10.73;7.65;;;;;;;;;;4957369;29;20042;-76
2023/06/25 02:05:34;;;;;;;12.18;7.53;;;;;;;;;;4957143;29;20042;-80
2023/06/25 02:08:00;;;;;;;11.82;6.72;;;;;;;;;;4957657;29;20036;-77
2023/06/25 02:10:26;;;;;;;12.68;6.95;;;;;;;;;;4958284;29;20027;-75
2023/06/25 02:12:52;;;;;;;11.07;7.40;;;;;;;;;;4973784;28;20102;-76
2023/06/25 02:15:17;;;;;;;15.00;7.88;;;;;;;;;;4924025;29;20062;-79
2023/06/25 02:17:43;;;;;;;12.70;7.13;;;;;;;;;;4937096;29;20551;-77
2023/06/25 02:20:08;;;;;;;11.02;6.90;;;;;;;;;;4938328;29;20082;-76
2023/06/25 02:22:34;;;;;;;14.43;7.32;;;;;;;;;;4939301;29;20028;-76
2023/06/25 02:24:59;;;;;;;10.75;6.45;;;;;;;;;;4940144;29;20095;-78
2023/06/25 02:27:25;;;;;;;14.48;7.07;;;;;;;;;;4921962;29;20031;-76
2023/06/25 02:29:50;;;;;;;10.20;7.00;;;;;;;;;;4940915;29;20043;-78
2023/06/25 02:32:16;;;;;;;13.30;6.78;;;;;;;;;;4938820;29;20046;-76
2023/06/25 02:34:41;;;;;;;13.40;7.00;;;;;;;;;;4939727;29;20110;-76
2023/06/25 02:37:16;;;;;;;12.70;7.25;;;;;;;;;;4938153;29;20031;-77
2023/06/25 02:39:41;;;;;;;12.35;7.55;;;;;;;;;;4936216;29;20046;-77
2023/06/25 02:42:07;;;;;;;13.88;7.60;;;;;;;;;;4935481;29;20639;-76
2023/06/25 02:44:33;;;;;;;10.57;7.50;;;;;;;;;;4937112;29;20036;-76
2023/06/25 02:46:58;;;;;;;11.82;7.80;;;;;;;;;;4941908;29;20070;-77
2023/06/25 02:49:24;;;;;;;10.88;6.80;;;;;;;;;;4956154;28;20063;-76
2023/06/25 02:51:50;;;;;;;8.98;6.80;;;;;;;;;;4954521;28;20562;-77
2023/06/25 02:54:15;;;;;;;11.23;6.88;;;;;;;;;;4954850;29;20058;-78
2023/06/25 02:56:41;;;;;;;12.55;6.55;;;;;;;;;;4954226;28;20461;-77
2023/06/25 02:59:06;;;;;;;12.55;7.38;;;;;;;;;;4938786;29;20043;-76
2023/06/25 03:01:32;;;;;;;13.45;7.20;;;;;;;;;;4959140;28;20355;-78
2023/06/25 03:03:58;;;;;;;13.65;7.00;;;;;;;;;;4940690;29;20054;-77
2023/06/25 03:06:23;;;;;;;14.20;8.32;;;;;;;;;;4953475;29;20039;-78
2023/06/25 03:08:49;;;;;;;11.93;6.80;;;;;;;;;;4953672;29;20534;-77
2023/06/25 03:11:15;;;;;;;10.90;6.22;;;;;;;;;;4953971;29;20121;-76
2023/06/25 03:13:41;;;;;;;11.68;6.80;;;;;;;;;;4934914;29;20060;-77
2023/06/25 03:16:06;;;;;;;13.80;6.65;;;;;;;;;;4935193;29;20032;-77
2023/06/25 03:18:32;;;;;;;13.98;7.15;;;;;;;;;;4934993;29;20028;-79
2023/06/25 03:20:58;;;;;;;11.27;7.25;;;;;;;;;;4950686;29;20040;-76
2023/06/25 03:23:24;;;;;;;13.32;6.78;;;;;;;;;;4934912;29;20110;-76
2023/06/25 03:25:50;;;;;;;9.20;6.68;;;;;;;;;;4950796;29;20040;-78
2023/06/25 03:28:24;;;;;;;12.95;7.15;;;;;;;;;;4935003;29;20111;-79
2023/06/25 03:30:49;;;;;;;12.88;7.38;;;;;;;;;;4934727;29;20122;-78
2023/06/25 03:33:17;;;;;;;10.30;6.82;;;;;;;;;;4934780;29;20031;-78
2023/06/25 03:35:42;;;;;;;12.00;7.00;;;;;;;;;;4919334;29;20055;-77
2023/06/25 03:38:10;;;;;;;11.88;7.47;;;;;;;;;;4934698;29;20130;-76
2023/06/25 03:40:38;;;;;;;11.48;7.72;;;;;;;;;;4934429;29;20038;-76
2023/06/25 03:43:04;;;;;;;12.98;7.60;;;;;;;;;;4935864;29;20087;-76
2023/06/25 03:45:31;;;;;;;9.77;6.72;;;;;;;;;;4934790;29;20050;-76
2023/06/25 03:47:56;;;;;;;12.13;7.82;;;;;;;;;;4931304;29;20412;-78
2023/06/25 03:50:22;;;;;;;12.77;6.85;;;;;;;;;;4953673;29;20093;-76
2023/06/25 03:52:49;;;;;;;8.75;6.50;;;;;;;;;;4953750;29;20510;-77
2023/06/25 03:55:15;;;;;;;14.00;7.53;;;;;;;;;;4953479;29;20111;-76
2023/06/25 03:57:43;;;;;;;11.18;7.47;;;;;;;;;;4937712;29;20448;-76
2023/06/25 04:00:09;;;;;;;16.42;7.25;;;;;;;;;;4969499;28;20440;-76
2023/06/25 04:02:40;;;;;;;14.35;6.78;;;;;;;;;;4953222;29;20034;-78
2023/06/25 04:05:06;;;;;;;11.57;7.15;;;;;;;;;;4953398;29;20027;-79
2023/06/25 04:07:32;;;;;;;11.15;7.22;;;;;;;;;;4936582;29;20039;-79
2023/06/25 04:09:57;;;;;;;12.05;7.38;;;;;;;;;;4937467;29;20034;-78
2023/06/25 04:12:24;;;;;;;11.25;7.28;;;;;;;;;;4937698;29;20557;-78
2023/06/25 04:14:49;;;;;;;16.10;7.63;;;;;;;;;;4940515;29;20114;-78
2023/06/25 04:17:15;;;;;;;12.30;7.03;;;;;;;;;;4953240;28;20478;-77
2023/06/25 04:19:42;;;;;;;10.75;6.95;;;;;;;;;;4953437;29;20027;-76
2023/06/25 04:22:07;;;;;;;11.82;7.70;;;;;;;;;;4952747;29;20532;-78
2023/06/25 04:24:33;;;;;;;10.98;7.68;;;;;;;;;;4953139;29;20110;-78
2023/06/25 04:26:59;;;;;;;12.90;6.93;;;;;;;;;;4953187;29;20035;-78
2023/06/25 04:29:25;;;;;;;18.45;12.00;;;;;;;;;;4953454;29;20402;-79
2023/06/25 04:31:51;;;;;;;16.45;7.35;;;;;;;;;;4952906;29;20042;-78
2023/06/25 04:34:16;;;;;;;13.18;7.70;;;;;;;;;;4933960;29;20031;-78
2023/06/25 04:36:44;;;;;;;10.45;6.82;;;;;;;;;;4934366;29;20036;-77
2023/06/25 04:39:10;;;;;;;12.18;6.82;;;;;;;;;;4934707;29;20058;-78
2023/06/25 04:41:36;;;;;;;16.52;7.55;;;;;;;;;;4935998;29;20034;-77
2023/06/25 04:44:02;;;;;;;12.02;6.45;;;;;;;;;;4936914;29;20036;-79
2023/06/25 04:46:28;;;;;;;11.65;7.45;;;;;;;;;;4936631;29;20058;-77
2023/06/25 04:48:54;;;;;;;11.93;7.20;;;;;;;;;;4964592;29;20439;-79
2023/06/25 04:51:19;;;;;;;9.93;6.88;;;;;;;;;;4951756;29;20035;-77
2023/06/25 04:53:45;;;;;;;13.57;7.28;;;;;;;;;;4976993;28;20023;-78
2023/06/25 04:56:10;;;;;;;11.77;7.40;;;;;;;;;;4938394;29;20035;-76
2023/06/25 04:58:37;;;;;;;13.90;7.18;;;;;;;;;;4966764;23;20047;-79
2023/06/25 05:01:03;;;;;;;11.95;7.03;;;;;;;;;;4954523;29;20071;-79
2023/06/25 05:03:28;;;;;;;10.45;7.35;;;;;;;;;;4937303;29;20028;-79
2023/06/25 05:05:54;;;;;;;14.13;7.97;;;;;;;;;;4954226;29;20035;-80
2023/06/25 05:08:20;;;;;;;9.60;6.75;;;;;;;;;;4954305;28;20028;-80
2023/06/25 05:10:45;;;;;;;13.27;7.15;;;;;;;;;;4953864;28;20055;-79
2023/06/25 05:13:11;;;;;;;12.50;6.78;;;;;;;;;;4954410;28;20023;-80
2023/06/25 05:15:39;;;;;;;10.43;6.60;;;;;;;;;;4953271;29;20035;-79
2023/06/25 05:18:05;;;;;;;12.80;6.55;;;;;;;;;;4955042;28;20038;-79
2023/06/25 05:20:35;;;;;;;10.07;6.40;;;;;;;;;;4958549;29;20422;-79
2023/06/25 05:23:04;;;;;;;9.55;6.13;;;;;;;;;;4956890;29;20035;-79
2023/06/25 05:25:30;;;;;;;10.30;6.68;;;;;;;;;;4941861;29;20098;-80
2023/06/25 05:27:56;;;;;;;15.60;6.97;;;;;;;;;;4956799;29;20063;-80
2023/06/25 05:30:21;;;;;;;9.90;6.28;;;;;;;;;;4956344;29;20055;-81
2023/06/25 05:32:47;;;;;;;13.95;6.38;;;;;;;;;;4956098;29;20035;-79
2023/06/25 05:35:12;;;;;;;13.07;6.45;;;;;;;;;;4956778;29;20031;-80
2023/06/25 05:37:38;;;;;;;10.98;6.72;;;;;;;;;;4940848;29;20495;-80
2023/06/25 05:40:04;;;;;;;13.10;7.03;;;;;;;;;;4957115;29;20027;-79
2023/06/25 05:42:30;;;;;;;12.80;6.70;;;;;;;;;;4957077;29;20039;-81
2023/06/25 05:44:55;;;;;;;9.02;6.68;;;;;;;;;;4941902;29;20038;-78
2023/06/25 05:47:21;;;;;;;12.73;6.53;;;;;;;;;;4950483;29;20035;-80
2023/06/25 05:49:46;;;;;;;10.68;6.38;;;;;;;;;;4954941;28;20034;-79
2023/06/25 05:52:12;;;;;;;10.60;6.18;;;;;;;;;;4938231;29;20043;-79
2023/06/25 05:54:37;;;;;;;15.18;7.55;;;;;;;;;;4941819;29;20068;-80
2023/06/25 05:57:03;;;;;;;13.02;7.45;;;;;;;;;;4944351;29;20088;-79
2023/06/25 05:59:28;;;;;;;11.18;6.82;;;;;;;;;;4939581;29;20036;-81
2023/06/25 06:01:54;;;;;;;11.45;6.50;;;;;;;;;;4938239;29;20035;-81
2023/06/25 06:04:19;;;;;;;15.55;6.88;;;;;;;;;;4938304;29;20499;-80
2023/06/25 06:06:45;;;;;;;11.80;6.65;;;;;;;;;;4953907;28;20175;-79
2023/06/25 06:09:10;;;;;;;11.15;6.25;;;;;;;;;;4939001;29;20027;-81
2023/06/25 06:11:36;;;;;;;9.43;5.97;;;;;;;;;;4938024;29;20036;-79
2023/06/25 06:14:01;;;;;;;11.63;6.03;;;;;;;;;;4939036;29;20027;-80
2023/06/25 06:16:27;;;;;;;8.70;5.47;;;;;;;;;;4938126;29;20111;-79
2023/06/25 06:18:52;;;;;;;11.48;6.13;;;;;;;;;;4937781;29;20403;-80
2023/06/25 06:21:18;;;;;;;11.77;5.93;;;;;;;;;;4936491;29;20395;-80
2023/06/25 06:23:43;;;;;;;15.20;5.85;;;;;;;;;;4937564;29;20035;-80
2023/06/25 06:26:09;;;;;;;10.20;5.63;;;;;;;;;;4936214;29;20091;-80
2023/06/25 06:28:34;;;;;;;12.43;6.43;;;;;;;;;;4937363;29;20588;-80
2023/06/25 06:31:00;;;;;;;9.60;6.00;;;;;;;;;;4936505;29;20039;-79
2023/06/25 06:33:25;;;;;;;11.65;6.18;;;;;;;;;;4936759;29;20059;-81
2023/06/25 06:35:51;;;;;;;10.30;6.05;;;;;;;;;;4904844;29;20041;-80
2023/06/25 06:38:16;;;;;;;11.65;5.95;;;;;;;;;;4926142;29;20035;-80
2023/06/25 06:40:42;;;;;;;11.95;5.10;;;;;;;;;;4943944;29;20545;-81
2023/06/25 06:43:07;;;;;;;9.93;4.95;;;;;;;;;;4940194;29;20031;-80
2023/06/25 06:45:33;;;;;;;9.40;5.15;;;;;;;;;;4937369;29;20406;-80
2023/06/25 06:47:59;;;;;;;8.45;5.35;;;;;;;;;;4936043;29;20039;-80
2023/06/25 06:50:24;;;;;;;9.07;5.03;;;;;;;;;;4937199;29;20028;-80
2023/06/25 06:52:50;;;;;;;7.88;4.22;;;;;;;;;;4920025;29;20079;-80
2023/06/25 06:55:15;;;;;;;7.72;4.70;;;;;;;;;;4937399;29;20484;-80
2023/06/25 06:57:41;;;;;;;11.18;5.43;;;;;;;;;;4937038;29;20031;-80
2023/06/25 07:00:07;;;;;;;7.60;4.88;;;;;;;;;;4936196;29;20039;-82
2023/06/25 07:02:33;;;;;;;7.93;4.47;;;;;;;;;;4951866;29;20028;-80
2023/06/25 07:04:58;;;;;;;9.07;4.68;;;;;;;;;;4936914;29;20079;-81
2023/06/25 07:07:24;;;;;;;8.65;5.05;;;;;;;;;;4952546;28;20039;-79
2023/06/25 07:09:50;;;;;;;8.65;4.20;;;;;;;;;;4942360;29;20514;-80
2023/06/25 07:12:16;;;;;;;8.93;4.30;;;;;;;;;;4919398;29;20023;-79
2023/06/25 07:14:42;;;;;;;8.95;4.43;;;;;;;;;;4936979;29;20030;-80
2023/06/25 07:17:07;;;;;;;6.75;4.07;;;;;;;;;;4936576;29;20406;-80
2023/06/25 07:19:33;;;;;;;7.35;4.43;;;;;;;;;;4937140;29;20027;-80
2023/06/25 07:21:58;;;;;;;5.78;3.72;;;;;;;;;;4940795;29;20087;-80
2023/06/25 07:24:24;;;;;;;6.32;4.10;;;;;;;;;;4944054;29;20040;-80
2023/06/25 07:26:49;;;;;;;7.55;4.53;;;;;;;;;;4955649;29;20051;-79
2023/06/25 07:29:15;;;;;;;9.43;4.25;;;;;;;;;;4953562;29;20028;-79
2023/06/25 07:31:41;;;;;;;9.10;4.30;;;;;;;;;;4954674;29;20028;-80
2023/06/25 07:34:06;;;;;;;9.48;3.85;;;;;;;;;;4946931;29;20087;-79
2023/06/25 07:36:31;;;;;;;7.50;4.72;;;;;;;;;;4942583;29;20111;-81
2023/06/25 07:38:58;;;;;;;7.38;4.18;;;;;;;;;;4937570;29;20403;-80
2023/06/25 07:41:24;;;;;;;9.75;5.20;;;;;;;;;;4936798;29;20028;-79
2023/06/25 07:43:49;;;;;;;9.60;4.50;;;;;;;;;;4934954;29;20455;-80
2023/06/25 07:46:15;;;;;;;8.57;4.65;;;;;;;;;;4903600;29;20042;-80
2023/06/25 07:48:40;;;;;;;7.65;3.90;;;;;;;;;;4935107;29;20070;-80
2023/06/25 07:51:07;;;;;;;5.75;3.97;;;;;;;;;;4934862;29;20074;-80
2023/06/25 07:53:32;;;;;;;6.82;4.22;;;;;;;;;;4951261;29;20031;-80
2023/06/25 07:55:58;;;;;;;10.00;4.25;;;;;;;;;;4936688;29;20142;-80
2023/06/25 07:58:23;;;;;;;7.07;4.45;;;;;;;;;;4936312;29;20067;-80
2023/06/25 08:00:49;;;;;;;7.32;4.25;;;;;;;;;;4935915;29;20039;-81
2023/06/25 08:03:15;;;;;;;6.20;4.15;;;;;;;;;;4935275;29;20031;-80
2023/06/25 08:05:40;;;;;;;6.18;3.80;;;;;;;;;;4935057;29;20590;-80
2023/06/25 08:08:06;;;;;;;7.30;4.47;;;;;;;;;;4936350;29;20039;-81
2023/06/25 08:10:31;;;;;;;12.07;4.57;;;;;;;;;;4918233;29;20087;-80
2023/06/25 08:12:57;;;;;;;8.77;4.65;;;;;;;;;;4918716;29;20082;-80
2023/06/25 08:15:22;;;;;;;6.28;3.90;;;;;;;;;;4935398;29;20515;-81
2023/06/25 08:17:48;;;;;;;7.50;4.15;;;;;;;;;;4934562;29;20075;-80
2023/06/25 08:20:13;;;;;;;6.20;4.25;;;;;;;;;;4934626;29;20032;-80
2023/06/25 08:22:39;;;;;;;6.20;3.83;;;;;;;;;;4934485;29;20574;-79
2023/06/25 08:25:18;;;;;;;5.60;3.85;;;;;;;;;;4935361;29;20028;-81
2023/06/25 08:27:43;;;;;;;6.57;4.07;;;;;;;;;;4936441;29;20073;-79
2023/06/25 08:30:09;;;;;;;6.18;3.85;;;;;;;;;;4934179;29;20755;-80
2023/06/25 08:32:34;;;;;;;6.15;4.43;;;;;;;;;;4935434;29;20407;-81
2023/06/25 08:35:00;;;;;;;6.70;4.05;;;;;;;;;;4934356;29;20043;-80
2023/06/25 08:37:26;;;;;;;6.65;4.30;;;;;;;;;;4935579;29;20074;-80
2023/06/25 08:39:51;;;;;;;7.53;4.18;;;;;;;;;;4935553;29;20047;-81
2023/06/25 08:42:17;;;;;;;6.40;3.88;;;;;;;;;;4935520;29;20039;-84
2023/06/25 08:44:42;;;;;;;7.55;4.03;;;;;;;;;;4935508;29;20132;-82
2023/06/25 08:47:09;;;;;;;7.47;4.20;;;;;;;;;;4934402;29;20526;-82
2023/06/25 08:49:35;;;;;;;5.30;3.83;;;;;;;;;;4936596;29;20043;-83
2023/06/25 08:52:01;;;;;;;5.93;4.20;;;;;;;;;;4953838;29;20154;-83
2023/06/25 08:54:27;;;;;;;7.57;4.32;;;;;;;;;;4956049;28;20031;-85
2023/06/25 08:56:53;;;;;;;6.70;4.30;;;;;;;;;;4955731;29;20039;-83
2023/06/25 08:59:18;;;;;;;6.15;4.13;;;;;;;;;;4942723;29;20095;-82
2023/06/25 09:01:44;;;;;;;8.00;4.53;;;;;;;;;;4966055;28;20061;-85
2023/06/25 09:04:09;;;;;;;8.55;4.05;;;;;;;;;;4966716;29;20043;-83
2023/06/25 09:06:41;;;;;;;6.90;3.80;;;;;;;;;;4948008;29;20043;-84
2023/06/25 09:09:10;;;;;;;7.25;3.97;;;;;;;;;;4944693;29;20031;-82
2023/06/25 09:11:40;;;;;;;6.38;4.47;;;;;;;;;;4944893;29;20038;-83
2023/06/25 09:14:06;;;;;;;7.18;4.10;;;;;;;;;;4928321;29;20070;-83
2023/06/25 09:16:32;;;;;;;7.20;4.07;;;;;;;;;;4943508;29;20040;-84
2023/06/25 09:18:59;;;;;;;7.15;4.35;;;;;;;;;;4927640;29;20039;-83
2023/06/25 09:21:34;;;;;;;6.43;3.87;;;;;;;;;;4936255;29;20039;-84
2023/06/25 09:24:09;;;;;;;9.15;3.80;;;;;;;;;;4934152;29;20522;-84
2023/06/25 09:26:43;;;;;;;6.45;3.97;;;;;;;;;;4919401;29;20119;-84
2023/06/25 09:29:08;;;;;;;9.02;4.07;;;;;;;;;;4934173;29;20547;-81
2023/06/25 09:31:35;;;;;;;6.28;4.00;;;;;;;;;;4934138;29;20028;-81
2023/06/25 09:34:03;;;;;;;6.90;3.70;;;;;;;;;;4934282;29;20495;-80
2023/06/25 09:36:32;;;;;;;6.72;4.10;;;;;;;;;;4933870;29;20028;-80
2023/06/25 09:38:57;;;;;;;6.47;3.38;;;;;;;;;;4934711;29;20035;-81
2023/06/25 09:41:23;;;;;;;6.82;4.32;;;;;;;;;;4918285;29;20399;-81
2023/06/25 09:43:50;;;;;;;7.38;4.70;;;;;;;;;;4934066;29;20112;-81
2023/06/25 09:46:16;;;;;;;5.65;3.88;;;;;;;;;;4935761;29;20028;-82
2023/06/25 09:48:42;;;;;;;6.97;3.97;;;;;;;;;;4935107;29;20028;-81
2023/06/25 09:51:08;;;;;;;7.03;3.95;;;;;;;;;;4920154;29;20035;-82
2023/06/25 09:53:35;;;;;;;10.07;4.60;;;;;;;;;;4935328;29;20134;-79
2023/06/25 09:56:01;;;;;;;8.82;4.20;;;;;;;;;;4936704;29;20028;-80
2023/06/25 09:58:28;;;;;;;7.43;4.20;;;;;;;;;;4937140;29;20051;-80
2023/06/25 10:00:55;;;;;;;5.22;3.28;;;;;;;;;;4939848;29;20036;-79
2023/06/25 10:03:21;;;;;;;7.40;3.53;;;;;;;;;;4940595;28;20081;-86
2023/06/25 10:05:47;;;;;;;10.80;3.97;;;;;;;;;;4935104;29;20044;-85
2023/06/25 10:08:13;;;;;;;8.38;3.60;;;;;;;;;;4925968;29;20027;-84
2023/06/25 10:10:38;;;;;;;6.78;3.92;;;;;;;;;;4953620;29;20407;-85
2023/06/25 10:13:05;;;;;;;7.82;3.55;;;;;;;;;;4930278;29;20043;-85
2023/06/25 10:15:31;;;;;;;7.00;3.90;;;;;;;;;;4942278;29;20499;-85
2023/06/25 10:17:57;;;;;;;5.13;3.35;;;;;;;;;;4922315;29;20040;-84
2023/06/25 10:20:27;;;;;;;5.63;3.42;;;;;;;;;;4921717;29;20484;-83
2023/06/25 10:23:05;;;;;;;5.57;3.30;;;;;;;;;;4959311;28;20038;-85
2023/06/25 10:25:30;;;;;;;;;;;;;;;;;;4923600;29;20035;-84
2023/06/25 10:28:03;;;;;;;6.40;3.10;;;;;;;;;;4907166;29;20260;-83
2023/06/25 10:30:35;;;;;;;160.40;106.10;;;;;;;;;;4924302;29;20456;-85
2023/06/25 10:33:01;;;;;;;83.75;58.67;;;;;;;;;;4939043;29;20023;-87
2023/06/25 10:35:26;;;;;;;13.65;9.50;;;;;;;;;;4939670;29;20130;-87
2023/06/25 10:37:52;;;;;;;14.32;9.70;;;;;;;;;;4940555;29;20038;-86
2023/06/25 10:40:18;;;;;;;10.43;6.40;;;;;;;;;;4936992;29;20032;-84
2023/06/25 10:42:46;;;;;;;6.35;3.88;;;;;;;;;;4921214;29;20503;-87
2023/06/25 10:45:11;;;;;;;;;;;;;;;;;;4922078;29;20074;-87
2023/06/25 10:47:37;;;;;;;4.88;3.40;;;;;;;;;;4939207;29;19949;-83
2023/06/25 10:50:03;;;;;;;5.38;3.30;;;;;;;;;;4955553;29;20023;-85
2023/06/25 10:52:28;;;;;;;5.65;3.58;;;;;;;;;;4957070;28;20030;-87
2023/06/25 10:54:55;;;;;;;4.85;3.25;;;;;;;;;;4956539;29;20039;-85
2023/06/25 10:57:20;;;;;;;7.75;3.75;;;;;;;;;;4940440;29;20063;-85
2023/06/25 10:59:46;;;;;;;5.93;3.90;;;;;;;;;;4957229;28;20039;-84
2023/06/25 11:02:18;;;;;;;5.22;3.53;;;;;;;;;;4939734;29;20502;-85
2023/06/25 11:04:51;;;;;;;7.20;3.25;;;;;;;;;;4939590;29;20118;-85
2023/06/25 11:07:17;;;;;;;6.32;3.80;;;;;;;;;;4955620;29;20038;-84
2023/06/25 11:09:45;;;;;;;6.28;3.83;;;;;;;;;;4956672;28;20027;-85
2023/06/25 11:12:10;;;;;;;7.28;3.67;;;;;;;;;;4939221;29;20034;-85
2023/06/25 11:14:36;;;;;;;5.28;3.30;;;;;;;;;;4955922;29;20035;-86
2023/06/25 11:17:01;;;;;;;6.13;3.28;;;;;;;;;;4936187;29;20055;-84
2023/06/25 11:19:29;;;;;;;5.45;3.40;;;;;;;;;;4936138;29;20522;-85
2023/06/25 11:21:54;;;;;;;4.97;3.38;;;;;;;;;;4945945;29;20398;-86
2023/06/25 11:24:20;;;;;;;7.28;3.75;;;;;;;;;;4955252;29;20039;-85
2023/06/25 11:26:45;;;;;;;7.03;4.13;;;;;;;;;;4956440;28;20031;-84
2023/06/25 11:29:14;;;;;;;9.35;3.92;;;;;;;;;;4956396;29;20570;-85
2023/06/25 11:31:52;;;;;;;9.18;3.53;;;;;;;;;;4942099;29;20031;-85
2023/06/25 11:34:24;;;;;;;4.70;2.97;;;;;;;;;;4943794;29;20495;-84
2023/06/25 11:36:50;;;;;;;6.20;3.25;;;;;;;;;;4945931;29;20061;-84
2023/06/25 11:39:15;;;;;;;6.97;3.47;;;;;;;;;;4942337;29;20039;-84
2023/06/25 11:41:42;;;;;;;7.07;3.67;;;;;;;;;;4960430;29;20031;-85
2023/06/25 11:44:20;;;;;;;4.70;3.10;;;;;;;;;;4943078;29;20058;-85
2023/06/25 11:46:50;;;;;;;7.25;3.13;;;;;;;;;;4959041;29;20035;-87
2023/06/25 11:49:17;;;;;;;6.18;3.22;;;;;;;;;;4920321;29;20510;-84
2023/06/25 11:51:42;;;;;;;6.55;3.45;;;;;;;;;;4936496;29;20114;-83
2023/06/25 11:54:08;;;;;;;5.45;3.70;;;;;;;;;;4936875;29;20059;-82
2023/06/25 11:56:33;;;;;;;6.13;3.25;;;;;;;;;;4936911;29;20040;-85
2023/06/25 11:58:59;;;;;;;4.70;2.83;;;;;;;;;;4919683;29;20482;-85
2023/06/25 12:01:25;;;;;;;74.40;59.25;;;;;;;;;;4936503;29;20027;-85
2023/06/25 12:03:50;;;;;;;86.25;66.13;;;;;;;;;;4935229;29;20041;-84
2023/06/25 12:06:16;;;;;;;21.55;15.13;;;;;;;;;;4935772;29;20028;-82
2023/06/25 12:08:41;;;;;;;18.60;13.00;;;;;;;;;;4935447;29;20035;-80
2023/06/25 12:11:07;;;;;;;13.75;9.98;;;;;;;;;;4953442;29;20075;-82
2023/06/25 12:13:32;;;;;;;14.85;10.25;;;;;;;;;;4943086;29;20035;-82
2023/06/25 12:15:58;;;;;;;13.93;9.15;;;;;;;;;;4955468;29;20034;-81
2023/06/25 12:18:23;;;;;;;14.43;10.77;;;;;;;;;;4953744;29;20108;-81
2023/06/25 12:20:49;;;;;;;8.20;5.22;;;;;;;;;;4945785;29;20031;-82
2023/06/25 12:23:15;;;;;;;7.63;4.80;;;;;;;;;;4943944;29;20098;-81
2023/06/25 12:25:40;;;;;;;4.32;3.17;;;;;;;;;;4926679;29;20114;-82
2023/06/25 12:28:06;;;;;;;10.85;7.10;;;;;;;;;;4940087;29;20035;-81
2023/06/25 12:30:31;;;;;;;5.07;3.47;;;;;;;;;;4939132;29;20038;-81
2023/06/25 12:32:57;;;;;;;11.20;8.02;;;;;;;;;;4938540;29;20035;-79
2023/06/25 12:35:22;;;;;;;13.07;8.45;;;;;;;;;;4939093;29;20380;-79
2023/06/25 12:37:48;;;;;;;6.72;4.80;;;;;;;;;;4938467;29;20040;-79
2023/06/25 12:40:14;;;;;;;4.45;3.13;;;;;;;;;;4939120;29;20122;-80
2023/06/25 12:42:40;;;;;;;5.22;2.78;;;;;;;;;;4938148;29;20042;-79
2023/06/25 12:45:06;;;;;;;4.68;2.80;;;;;;;;;;4939240;29;20035;-79
2023/06/25 12:47:32;;;;;;;6.10;2.75;;;;;;;;;;4943767;29;20032;-79
2023/06/25 12:49:57;;;;;;;6.30;2.95;;;;;;;;;;4939082;29;20027;-80
2023/06/25 12:52:23;;;;;;;4.85;3.00;;;;;;;;;;4935800;29;20483;-80
2023/06/25 12:54:48;;;;;;;4.10;2.90;;;;;;;;;;4937086;29;20020;-81
2023/06/25 12:57:14;;;;;;;4.38;2.90;;;;;;;;;;4951242;29;20040;-81
2023/06/25 12:59:39;;;;;;;4.90;2.92;;;;;;;;;;4937043;29;20685;-80
2023/06/25 13:02:05;;;;;;;5.40;3.30;;;;;;;;;;4936037;29;20032;-80
2023/06/25 13:04:31;;;;;;;5.30;2.85;;;;;;;;;;4936190;29;20027;-82
2023/06/25 13:06:56;;;;;;;6.28;3.28;;;;;;;;;;4936740;29;20361;-80
2023/06/25 13:09:23;;;;;;;6.18;3.92;;;;;;;;;;4935408;29;20071;-81
2023/06/25 13:11:48;;;;;;;7.00;4.20;;;;;;;;;;4936711;29;20508;-79
2023/06/25 13:14:14;;;;;;;7.18;4.43;;;;;;;;;;4934644;29;20032;-82
2023/06/25 13:16:40;;;;;;;5.05;3.53;;;;;;;;;;4935692;29;20094;-80
2023/06/25 13:19:05;;;;;;;6.60;4.45;;;;;;;;;;4934422;29;20043;-79
2023/06/25 13:21:31;;;;;;;6.55;3.60;;;;;;;;;;4933414;29;20035;-80
2023/06/25 13:23:56;;;;;;;6.00;3.60;;;;;;;;;;4917835;29;20037;-80
2023/06/25 13:26:22;;;;;;;6.82;4.13;;;;;;;;;;4918030;29;20032;-81
2023/06/25 13:28:48;;;;;;;7.60;4.00;;;;;;;;;;4934257;29;20031;-81
2023/06/25 13:31:14;;;;;;;6.28;4.10;;;;;;;;;;4918070;29;20042;-80
2023/06/25 13:33:39;;;;;;;5.38;3.50;;;;;;;;;;4918416;29;20035;-80
2023/06/25 13:36:05;;;;;;;7.00;4.13;;;;;;;;;;4934941;29;20115;-81
2023/06/25 13:38:30;;;;;;;5.45;3.45;;;;;;;;;;4935345;29;20042;-81
2023/06/25 13:40:56;;;;;;;6.32;3.50;;;;;;;;;;4936757;29;20028;-80
2023/06/25 13:43:21;;;;;;;6.50;3.50;;;;;;;;;;4937293;29;20032;-80
2023/06/25 13:45:47;;;;;;;10.80;4.45;;;;;;;;;;4938286;29;20373;-81
2023/06/25 13:48:12;;;;;;;8.05;4.10;;;;;;;;;;4937010;29;20074;-80
2023/06/25 13:50:38;;;;;;;6.68;2.80;;;;;;;;;;4950598;29;20031;-81
2023/06/25 13:53:04;;;;;;;6.03;3.75;;;;;;;;;;4957500;28;20398;-80
2023/06/25 13:55:29;;;;;;;6.40;3.83;;;;;;;;;;4956291;29;20534;-81
2023/06/25 13:57:55;;;;;;;7.53;3.80;;;;;;;;;;4955959;29;20031;-82
2023/06/25 14:00:20;;;;;;;4.72;3.50;;;;;;;;;;4957073;28;20499;-82
2023/06/25 14:02:46;;;;;;;6.05;4.05;;;;;;;;;;4955896;29;20031;-81
2023/06/25 14:05:12;;;;;;;5.15;3.10;;;;;;;;;;4956966;28;20035;-81
2023/06/25 14:07:37;;;;;;;6.55;3.58;;;;;;;;;;4955725;29;20459;-80
2023/06/25 14:10:03;;;;;;;4.40;2.70;;;;;;;;;;4957222;28;20038;-81
2023/06/25 14:12:29;;;;;;;5.85;3.67;;;;;;;;;;4956735;28;20526;-82
2023/06/25 14:14:54;;;;;;;6.28;3.80;;;;;;;;;;4955807;29;20032;-81
2023/06/25 14:17:20;;;;;;;4.45;2.97;;;;;;;;;;4936204;29;20114;-82
2023/06/25 14:19:45;;;;;;;5.93;4.05;;;;;;;;;;4938211;29;20027;-81
2023/06/25 14:22:11;;;;;;;5.10;3.40;;;;;;;;;;4936243;29;20031;-80
2023/06/25 14:24:36;;;;;;;5.15;3.22;;;;;;;;;;4936641;29;20083;-80
2023/06/25 14:27:02;;;;;;;6.15;3.03;;;;;;;;;;4920358;29;20067;-81
2023/06/25 14:29:27;;;;;;;4.65;3.45;;;;;;;;;;4920462;29;20153;-80